Time;durP1;ratioP1;P1;durP2;ratioP2;P2;SDS_P1;SDS_P2;PMS_P1;PMS_P2;Temp;Humidity;BMP_temperature;BMP_pressure;BME280_temperature;BME280_humidity;BME280_pressure;Samples;Min_cycle;Max_cycle;Signal;HPM_P1;HPM_P2
2022/03/19 00:00:04;;;;;;;12.15;6.65;;;;;;;10.95;46.92;104343.91;4955993;28;123403;-64
2022/03/19 00:02:42;;;;;;;10.75;5.85;;;;;;;10.93;46.88;104345.66;4959450;28;115302;-63
2022/03/19 00:05:09;;;;;;;11.63;6.35;;;;;;;10.91;46.93;104344.75;4958344;28;113196;-61
2022/03/19 00:07:40;;;;;;;11.00;6.60;;;;;;;10.89;47.34;104338.53;4962273;28;124124;-61
2022/03/19 00:10:09;;;;;;;16.92;7.10;;;;;;;10.88;47.61;104342.06;4960763;28;123735;-62
2022/03/19 00:12:38;;;;;;;12.77;6.85;;;;;;;10.88;47.50;104347.34;4962602;28;115905;-62
2022/03/19 00:15:08;;;;;;;10.82;6.78;;;;;;;10.87;47.31;104340.28;4963895;28;115490;-62
2022/03/19 00:17:36;;;;;;;14.20;6.82;;;;;;;10.86;47.64;104343.81;4958969;28;124168;-62
2022/03/19 00:20:04;;;;;;;14.32;7.05;;;;;;;10.84;47.81;104340.25;4960927;28;124798;-62
2022/03/19 00:22:32;;;;;;;13.80;7.60;;;;;;;10.82;47.60;104336.69;4953803;28;114161;-62
2022/03/19 00:24:59;;;;;;;12.25;7.45;;;;;;;10.82;47.82;104336.69;4967402;28;112987;-62
2022/03/19 00:27:26;;;;;;;11.98;7.05;;;;;;;10.80;47.70;104338.44;4951289;28;124232;-62
2022/03/19 00:29:54;;;;;;;12.55;7.45;;;;;;;10.80;47.68;104338.44;4962440;28;124205;-62
2022/03/19 00:32:21;;;;;;;14.15;8.30;;;;;;;10.78;48.04;104329.59;4958589;28;114392;-62
2022/03/19 00:34:48;;;;;;;12.13;7.60;;;;;;;10.76;47.99;104326.03;4961448;28;114002;-61
2022/03/19 00:37:15;;;;;;;14.02;7.53;;;;;;;10.74;48.19;104338.34;4965491;28;123655;-62
2022/03/19 00:39:42;;;;;;;11.13;7.55;;;;;;;10.72;48.10;104330.41;4957772;28;123820;-62
2022/03/19 00:42:10;;;;;;;13.52;7.82;;;;;;;10.71;48.21;104337.44;4962398;28;113538;-62
2022/03/19 00:44:37;;;;;;;16.45;8.13;;;;;;;10.71;47.69;104334.81;4959115;28;114406;-62
2022/03/19 00:47:04;;;;;;;14.18;7.97;;;;;;;10.69;47.78;104330.38;4955957;28;123175;-61
2022/03/19 00:49:31;;;;;;;15.50;8.57;;;;;;;10.66;47.77;104320.63;4948543;28;123396;-62
2022/03/19 00:51:58;;;;;;;14.27;7.82;;;;;;;10.65;48.07;104329.44;4967016;28;113385;-62
2022/03/19 00:54:26;;;;;;;12.95;8.68;;;;;;;10.64;48.02;104326.78;4966687;28;113732;-60
2022/03/19 00:56:53;;;;;;;16.20;8.15;;;;;;;10.61;48.12;104332.94;4958365;28;124596;-61
2022/03/19 00:59:20;;;;;;;16.08;8.32;;;;;;;10.60;47.99;104330.25;4953757;28;124180;-61
2022/03/19 01:01:47;;;;;;;12.57;8.27;;;;;;;10.56;47.99;104329.34;4961653;28;115007;-62
2022/03/19 01:04:16;;;;;;;15.93;8.60;;;;;;;10.52;48.39;104322.22;4960514;28;115200;-61
2022/03/19 01:06:43;;;;;;;14.20;8.63;;;;;;;10.48;48.23;104336.31;4957227;28;124441;-61
2022/03/19 01:09:10;;;;;;;14.80;7.80;;;;;;;10.47;48.04;104329.22;4954934;28;125086;-61
2022/03/19 01:11:37;;;;;;;12.27;7.57;;;;;;;10.45;48.07;104325.69;4960332;28;114473;-61
2022/03/19 01:14:04;;;;;;;18.83;7.93;;;;;;;10.44;47.94;104318.63;4965336;28;112853;-61
2022/03/19 01:16:31;;;;;;;15.57;8.07;;;;;;;10.41;48.13;104323.88;4962917;28;125184;-60
2022/03/19 01:18:59;;;;;;;17.25;8.32;;;;;;;10.40;48.06;104332.72;4957473;28;124553;-61
2022/03/19 01:21:26;;;;;;;15.75;8.07;;;;;;;10.36;48.15;104325.56;4954211;28;114768;-60
2022/03/19 01:23:54;;;;;;;14.10;7.78;;;;;;;10.32;48.05;104320.25;4971170;28;114156;-60
2022/03/19 01:26:21;;;;;;;13.43;8.05;;;;;;;10.30;48.28;104316.69;4963300;28;122916;-60
2022/03/19 01:28:48;;;;;;;17.92;8.23;;;;;;;10.28;48.51;104322.78;4958234;28;123871;-60
2022/03/19 01:31:15;;;;;;;14.30;7.90;;;;;;;10.25;48.59;104321.00;4963081;28;114286;-60
2022/03/19 01:33:43;;;;;;;17.10;7.60;;;;;;;10.21;48.35;104321.84;4956921;28;113792;-60
2022/03/19 01:36:10;;;;;;;12.73;8.02;;;;;;;10.17;48.80;104330.63;4951530;28;124521;-60
2022/03/19 01:38:37;;;;;;;13.27;8.25;;;;;;;10.16;48.43;104317.34;4956396;28;123874;-60
2022/03/19 01:41:05;;;;;;;12.73;8.18;;;;;;;10.14;48.55;104319.97;4957064;28;114525;-60
2022/03/19 01:43:32;;;;;;;13.18;7.78;;;;;;;10.10;48.78;104313.75;4962787;28;113906;-61
2022/03/19 01:45:59;;;;;;;14.30;8.43;;;;;;;10.08;48.86;104314.63;4957858;28;124078;-60
2022/03/19 01:48:27;;;;;;;15.63;7.93;;;;;;;10.07;48.85;104318.13;4952396;28;123938;-61
2022/03/19 01:50:54;;;;;;;16.48;8.07;;;;;;;10.02;49.13;104315.44;4963752;28;115953;-61
2022/03/19 01:53:21;;;;;;;13.25;8.20;;;;;;;10.00;49.12;104310.94;4953721;28;114623;-61
2022/03/19 01:55:50;;;;;;;13.45;8.13;;;;;;;9.96;48.89;104309.13;4956213;28;124381;-61
2022/03/19 01:58:17;;;;;;;13.27;7.90;;;;;;;9.94;48.81;104307.38;4955215;28;124323;-61
2022/03/19 02:00:44;;;;;;;16.05;7.85;;;;;;;9.90;49.01;104300.25;4960718;28;114291;-61
2022/03/19 02:03:12;;;;;;;12.85;7.22;;;;;;;9.88;49.33;104312.56;4955845;28;114331;-61
2022/03/19 02:05:40;;;;;;;14.05;8.23;;;;;;;9.86;49.29;104303.72;4959503;28;124823;-61
2022/03/19 02:08:07;;;;;;;16.75;7.85;;;;;;;9.83;49.29;104303.69;4961562;28;124167;-61
2022/03/19 02:10:36;;;;;;;12.48;7.47;;;;;;;9.82;49.52;104312.50;4954425;28;114403;-61
2022/03/19 02:13:03;;;;;;;20.05;7.90;;;;;;;9.80;49.65;104303.63;4961350;28;114381;-61
2022/03/19 02:15:30;;;;;;;13.23;7.45;;;;;;;9.79;49.52;104312.44;4960870;28;124915;-61
2022/03/19 02:17:57;;;;;;;13.52;7.30;;;;;;;9.79;49.58;104304.50;4942244;28;122811;-61
2022/03/19 02:20:26;;;;;;;14.15;7.68;;;;;;;9.79;49.61;104307.13;4965152;28;113361;-61
2022/03/19 02:25:40;;;;;;;15.70;7.20;;;;;;;9.73;49.13;104291.19;4950131;28;124403;-61
2022/03/19 02:28:07;;;;;;;13.77;7.65;;;;;;;9.70;49.60;104292.03;4953758;28;123951;-62
2022/03/19 02:30:38;;;;;;;13.07;7.57;;;;;;;9.68;49.58;104292.88;4958170;28;114009;-61
2022/03/19 02:33:06;;;;;;;12.75;6.85;;;;;;;9.65;49.56;104287.53;4957287;28;113981;-62
2022/03/19 02:35:33;;;;;;;14.80;7.32;;;;;;;9.62;49.28;104287.50;4962474;28;123957;-62
2022/03/19 02:38:00;;;;;;;14.27;7.28;;;;;;;9.57;49.26;104284.78;4962608;28;123655;-61
2022/03/19 02:40:28;;;;;;;16.20;7.60;;;;;;;9.51;49.67;104275.00;4961918;28;114890;-61
2022/03/19 02:42:56;;;;;;;15.93;7.32;;;;;;;9.48;49.46;104287.31;4960079;28;115511;-61
2022/03/19 02:45:23;;;;;;;13.02;7.53;;;;;;;9.43;49.83;104281.91;4954209;28;124481;-61
2022/03/19 02:47:57;;;;;;;13.55;7.25;;;;;;;9.39;49.84;104280.09;4956833;28;123790;-61
2022/03/19 02:50:35;;;;;;;15.98;7.55;;;;;;;9.34;49.95;104287.06;4961842;28;114189;-61
2022/03/19 02:53:08;;;;;;;13.80;6.97;;;;;;;9.29;49.84;104278.19;4960297;28;113851;-61
2022/03/19 02:55:38;;;;;;;15.88;7.07;;;;;;;9.24;50.32;104285.16;4952172;28;123957;-61
2022/03/19 02:58:06;;;;;;;15.05;7.80;;;;;;;9.21;50.19;104279.81;4955439;28;123751;-61
2022/03/19 03:00:35;;;;;;;19.95;7.40;;;;;;;9.18;50.70;104285.06;4961023;28;114311;-61
2022/03/19 03:03:04;;;;;;;12.80;6.35;;;;;;;9.18;50.87;104279.78;4958949;28;113924;-61
2022/03/19 03:05:33;;;;;;;14.45;6.82;;;;;;;9.19;50.89;104276.25;4958667;28;123869;-61
2022/03/19 03:08:01;;;;;;;13.40;7.28;;;;;;;9.19;50.83;104270.97;4956233;28;124204;-61
2022/03/19 03:10:29;;;;;;;14.13;6.65;;;;;;;9.21;50.89;104269.22;4960638;28;114335;-65
2022/03/19 03:12:56;;;;;;;13.10;6.97;;;;;;;9.21;51.21;104264.84;4958425;28;114032;-60
2022/03/19 03:15:24;;;;;;;12.25;7.20;;;;;;;9.23;51.14;104267.50;4961056;28;124110;-61
2022/03/19 03:17:51;;;;;;;11.82;6.65;;;;;;;9.23;51.30;104272.78;4959343;28;125535;-61
2022/03/19 03:20:20;;;;;;;11.30;6.65;;;;;;;9.24;51.57;104264.00;4951523;28;114999;-61
2022/03/19 03:22:47;;;;;;;14.23;6.43;;;;;;;9.27;51.45;104269.34;4954246;28;113930;-61
2022/03/19 03:25:15;;;;;;;16.35;6.82;;;;;;;9.27;51.31;104264.94;4960055;28;124021;-61
2022/03/19 03:27:42;;;;;;;16.00;6.82;;;;;;;9.27;51.29;104269.34;4951943;28;124180;-61
2022/03/19 03:30:10;;;;;;;14.35;7.55;;;;;;;9.26;51.28;104272.84;4954799;28;114351;-60
2022/03/19 03:32:37;;;;;;;15.13;6.68;;;;;;;9.24;51.17;104271.94;4956361;28;115150;-61
2022/03/19 03:35:04;;;;;;;16.25;6.85;;;;;;;9.23;51.54;104267.50;4961449;28;124647;-61
2022/03/19 03:37:32;;;;;;;15.23;7.28;;;;;;;9.22;51.54;104271.03;4958675;28;123695;-61
2022/03/19 03:39:59;;;;;;;15.05;6.95;;;;;;;9.20;51.34;104251.59;4961838;28;114706;-61
2022/03/19 03:42:26;;;;;;;15.93;7.25;;;;;;;9.18;51.22;104258.63;4962926;28;113733;-61
2022/03/19 03:44:58;;;;;;;12.27;7.00;;;;;;;9.15;51.24;104265.63;4959899;28;123982;-60
2022/03/19 03:47:26;;;;;;;16.13;7.05;;;;;;;9.13;51.59;104256.75;4955737;28;123841;-60
2022/03/19 03:49:53;;;;;;;14.27;6.85;;;;;;;9.13;51.62;104251.47;4959456;28;114324;-60
2022/03/19 03:52:21;;;;;;;14.07;7.18;;;;;;;9.11;51.66;104247.91;4955302;28;113305;-60
2022/03/19 03:54:48;;;;;;;16.95;7.45;;;;;;;9.10;51.28;104248.81;4957237;28;123023;-60
2022/03/19 03:57:16;;;;;;;15.35;7.45;;;;;;;9.09;51.40;104249.66;4953169;28;124219;-60
2022/03/19 03:59:43;;;;;;;12.52;6.78;;;;;;;9.09;51.37;104249.66;4956925;28;115118;-61
2022/03/19 04:02:11;;;;;;;14.70;7.10;;;;;;;9.06;51.07;104239.03;4966160;28;115510;-60
2022/03/19 04:04:39;;;;;;;11.48;6.75;;;;;;;9.03;51.22;104249.56;4962878;28;124220;-60
2022/03/19 04:07:06;;;;;;;14.35;6.53;;;;;;;8.99;51.29;104245.09;4963842;28;123791;-61
2022/03/19 04:09:35;;;;;;;13.75;6.22;;;;;;;8.97;51.23;104244.19;4958422;28;114159;-64
2022/03/19 04:12:03;;;;;;;17.20;7.00;;;;;;;8.94;51.30;104241.47;4958311;28;115376;-61
2022/03/19 04:14:30;;;;;;;16.25;6.80;;;;;;;8.91;51.33;104233.47;4958304;28;124995;-61
2022/03/19 04:16:57;;;;;;;15.05;6.20;;;;;;;8.88;51.46;104241.38;4962051;28;123792;-61
2022/03/19 04:19:25;;;;;;;18.17;6.93;;;;;;;8.84;51.12;104242.19;4957949;28;115487;-60
2022/03/19 04:21:52;;;;;;;13.18;6.40;;;;;;;8.80;51.30;104235.06;4962713;28;114421;-60
2022/03/19 04:24:19;;;;;;;14.70;6.72;;;;;;;8.77;51.49;104234.13;4958173;28;124431;-60
2022/03/19 04:26:46;;;;;;;14.45;7.28;;;;;;;8.74;51.15;104239.41;4953087;28;123769;-61
2022/03/19 04:29:13;;;;;;;12.18;6.53;;;;;;;8.72;51.17;104237.56;4957010;28;113057;-60
2022/03/19 04:31:43;;;;;;;15.55;6.72;;;;;;;8.70;51.57;104234.00;4957311;28;114110;-60
2022/03/19 04:34:10;;;;;;;12.70;6.30;;;;;;;8.65;51.46;104233.94;4960460;28;124613;-60
2022/03/19 04:36:37;;;;;;;15.45;6.90;;;;;;;8.62;51.21;104236.53;4962379;28;123551;-60
2022/03/19 04:39:07;;;;;;;15.60;6.97;;;;;;;8.60;51.57;104225.03;4965715;28;114009;-60
2022/03/19 04:41:36;;;;;;;12.65;6.60;;;;;;;8.56;51.38;104223.22;4946232;28;112901;-60
2022/03/19 04:44:05;;;;;;;11.32;6.75;;;;;;;8.53;51.56;104220.50;4957430;28;124384;-63
2022/03/19 04:46:33;;;;;;;15.20;7.65;;;;;;;8.50;51.72;104231.03;4965204;28;122990;-60
2022/03/19 04:49:01;;;;;;;14.52;6.95;;;;;;;8.46;51.93;104218.63;4957858;28;113181;-61
2022/03/19 04:51:37;;;;;;;14.57;6.80;;;;;;;8.41;51.92;104220.25;4961435;28;114362;-60
2022/03/19 04:54:05;;;;;;;13.88;6.82;;;;;;;8.37;51.91;104220.19;4961806;28;124644;-61
2022/03/19 04:56:33;;;;;;;15.50;7.68;;;;;;;8.35;51.84;104221.91;4952377;28;123767;-61
2022/03/19 04:59:01;;;;;;;14.63;7.10;;;;;;;8.33;51.70;104222.75;4965862;28;114669;-60
2022/03/19 05:01:31;;;;;;;13.63;7.30;;;;;;;8.30;52.04;104228.84;4979435;28;114343;-60
2022/03/19 05:03:58;;;;;;;18.00;7.05;;;;;;;8.27;51.66;104228.81;4958006;28;124644;-60
2022/03/19 05:06:26;;;;;;;16.48;7.70;;;;;;;8.25;51.87;104224.34;4961644;28;124170;-60
2022/03/19 05:11:40;;;;;;;13.82;7.07;;;;;;;8.22;52.30;104233.09;4954291;28;114869;-60
2022/03/19 05:14:09;;;;;;;15.88;7.03;;;;;;;8.21;52.15;104233.94;4961931;28;124176;-60
2022/03/19 05:16:36;;;;;;;14.73;7.05;;;;;;;8.21;52.18;104233.94;4955592;28;124623;-61
2022/03/19 05:19:04;;;;;;;16.40;7.40;;;;;;;8.18;52.08;104236.56;4958282;28;113261;-61
2022/03/19 05:21:32;;;;;;;16.92;8.23;;;;;;;8.16;52.54;104240.91;4959360;28;114289;-61
2022/03/19 05:23:59;;;;;;;16.20;7.80;;;;;;;8.13;52.41;104235.56;4960632;28;125110;-61
2022/03/19 05:26:27;;;;;;;14.68;7.80;;;;;;;8.12;52.08;104233.81;4966564;28;124998;-61
2022/03/19 05:28:55;;;;;;;13.18;7.55;;;;;;;8.09;52.48;104233.72;4958247;28;114340;-61
2022/03/19 05:31:42;;;;;;;17.80;7.70;;;;;;;8.09;52.61;104233.72;4954370;28;114644;-61
2022/03/19 05:37:00;;;;;;;17.80;7.65;;;;;;;8.06;52.74;104238.94;4956682;28;123952;-61
2022/03/19 05:39:29;;;;;;;16.25;7.60;;;;;;;8.05;52.64;104242.44;4957726;28;114206;-62
2022/03/19 05:41:56;;;;;;;16.98;7.55;;;;;;;8.03;52.96;104233.63;4955064;28;114158;-61
2022/03/19 05:44:23;;;;;;;16.02;7.70;;;;;;;8.03;53.14;104233.63;4957604;28;124127;-61
2022/03/19 05:46:50;;;;;;;18.30;7.60;;;;;;;8.03;52.88;104238.91;4956836;28;124968;-61
2022/03/19 05:49:17;;;;;;;16.95;7.95;;;;;;;8.05;53.35;104247.72;4959170;28;113129;-61
2022/03/19 05:51:45;;;;;;;15.27;8.10;;;;;;;8.05;53.41;104242.44;4959769;28;114025;-61
2022/03/19 05:54:12;;;;;;;17.73;7.82;;;;;;;8.06;53.72;104249.50;4959923;28;124239;-61
2022/03/19 05:56:40;;;;;;;15.50;7.35;;;;;;;8.10;53.84;104259.25;4949544;28;124166;-60
2022/03/19 05:59:10;;;;;;;18.70;8.20;;;;;;;8.13;54.16;104256.69;4956216;28;115061;-61
2022/03/19 06:01:37;;;;;;;13.98;7.90;;;;;;;8.16;53.94;104251.47;4953204;28;113956;-61
2022/03/19 06:04:05;;;;;;;13.80;7.47;;;;;;;8.18;53.99;104255.03;4955650;28;123405;-61
2022/03/19 06:06:32;;;;;;;15.25;7.78;;;;;;;8.21;54.18;104255.06;4953296;28;123667;-61
2022/03/19 06:08:59;;;;;;;18.52;7.20;;;;;;;8.24;54.24;104257.78;4964127;28;113621;-60
2022/03/19 06:11:27;;;;;;;14.63;7.90;;;;;;;8.28;54.10;104251.69;4961638;28;114533;-61
2022/03/19 06:13:56;;;;;;;19.27;7.95;;;;;;;8.32;54.49;104253.53;4959935;28;124239;-61
2022/03/19 06:16:23;;;;;;;20.42;8.02;;;;;;;8.36;54.31;104255.41;4961194;28;123708;-61
2022/03/19 06:18:51;;;;;;;14.13;7.70;;;;;;;8.38;54.73;104252.75;4962761;28;115069;-61
2022/03/19 06:21:19;;;;;;;21.88;7.97;;;;;;;8.42;54.84;104259.03;4949790;28;113425;-61
2022/03/19 06:23:47;;;;;;;16.98;8.15;;;;;;;8.46;54.41;104255.63;4952393;28;123913;-61
2022/03/19 06:26:14;;;;;;;13.98;8.18;;;;;;;8.49;54.62;104260.94;4954833;28;123923;-61
2022/03/19 06:28:41;;;;;;;19.00;8.05;;;;;;;8.54;55.01;104264.56;4949216;28;114354;-61
2022/03/19 06:31:08;;;;;;;14.38;7.75;;;;;;;8.58;54.71;104256.72;4951111;28;114277;-61
2022/03/19 06:33:39;;;;;;;18.20;7.55;;;;;;;8.63;55.17;104259.44;4956262;28;124101;-61
2022/03/19 06:38:53;;;;;;;16.08;7.40;;;;;;;8.74;55.03;104257.91;4951696;28;114170;-61
2022/03/19 06:41:23;;;;;;;18.73;7.75;;;;;;;8.81;55.11;104253.59;4956776;28;114129;-61
2022/03/19 06:43:51;;;;;;;15.30;7.85;;;;;;;8.89;55.11;104254.63;4955838;28;123792;-61
2022/03/19 06:46:18;;;;;;;14.80;7.38;;;;;;;8.98;55.05;104248.59;4956779;28;124481;-61
2022/03/19 06:48:50;;;;;;;17.15;7.15;;;;;;;9.08;55.00;104247.88;4950432;28;115081;-62
2022/03/19 06:51:18;;;;;;;13.73;6.80;;;;;;;9.16;55.13;104248.88;4956297;28;115352;-62
2022/03/19 06:53:47;;;;;;;16.08;6.97;;;;;;;9.27;54.93;104253.47;4955426;28;123674;-61
2022/03/19 06:56:15;;;;;;;15.27;6.90;;;;;;;9.36;55.31;104243.00;4949927;28;122706;-61
2022/03/19 06:58:42;;;;;;;16.60;7.15;;;;;;;9.47;55.21;104257.28;4951442;28;114354;-62
2022/03/19 07:01:15;;;;;;;15.43;7.40;;;;;;;9.57;54.99;104244.19;4953423;28;114173;-62
2022/03/19 07:03:44;;;;;;;17.23;7.43;;;;;;;9.67;54.98;104233.75;4952859;28;125145;-62
2022/03/19 07:06:13;;;;;;;14.88;6.80;;;;;;;9.78;54.97;104241.84;4963238;28;123842;-62
2022/03/19 07:09:00;;;;;;;14.77;6.35;;;;;;;9.88;54.73;104242.84;4956621;28;114372;-62
2022/03/19 07:11:28;;;;;;;12.75;6.82;;;;;;;9.98;54.49;104249.16;4957801;28;113856;-61
2022/03/19 07:13:55;;;;;;;12.25;6.30;;;;;;;10.06;54.58;104247.50;4961249;28;123597;-61
2022/03/19 07:16:22;;;;;;;11.52;6.53;;;;;;;10.15;54.52;104247.56;4950635;28;123763;-61
2022/03/19 07:18:50;;;;;;;14.23;6.43;;;;;;;10.24;54.43;104252.97;4951530;28;114475;-61
2022/03/19 07:21:17;;;;;;;12.27;5.85;;;;;;;10.32;54.70;104251.38;4951884;28;114054;-61
2022/03/19 07:23:50;;;;;;;12.60;6.05;;;;;;;10.41;54.34;104252.31;4955101;28;124253;-61
2022/03/19 07:26:17;;;;;;;16.83;6.00;;;;;;;10.47;54.01;104245.34;4958894;28;124056;-61
2022/03/19 07:28:44;;;;;;;12.98;5.93;;;;;;;10.54;53.88;104251.56;4954178;28;114052;-63
2022/03/19 07:31:12;;;;;;;12.98;5.22;;;;;;;10.62;53.86;104244.56;4961098;28;114664;-61
2022/03/19 07:33:39;;;;;;;14.85;5.18;;;;;;;10.71;53.68;104244.66;4956796;28;123486;-62
2022/03/19 07:36:06;;;;;;;11.00;5.35;;;;;;;10.82;53.68;104241.25;4959228;28;124284;-62
2022/03/19 07:38:33;;;;;;;11.80;5.07;;;;;;;10.92;53.53;104243.06;4954194;28;115891;-62
2022/03/19 07:43:46;;;;;;;13.23;4.80;;;;;;;11.09;53.08;104252.06;4951985;28;123061;-61
2022/03/19 07:46:15;;;;;;;14.77;5.18;;;;;;;11.18;53.40;104250.38;4962344;28;124203;-61
2022/03/19 07:48:42;;;;;;;12.70;4.82;;;;;;;11.25;52.85;104246.88;4950553;28;114005;-61
2022/03/19 07:51:09;;;;;;;11.60;4.40;;;;;;;11.30;52.56;104246.03;4952187;28;114238;-61
2022/03/19 07:53:37;;;;;;;11.07;4.38;;;;;;;11.36;52.59;104239.88;4958115;28;124293;-61
2022/03/19 07:56:05;;;;;;;12.10;4.38;;;;;;;11.42;52.41;104237.25;4966146;28;122906;-61
2022/03/19 07:58:32;;;;;;;11.45;4.10;;;;;;;11.47;51.93;104238.19;4956304;28;114375;-61
2022/03/19 08:00:59;;;;;;;8.93;4.63;;;;;;;11.55;52.17;104240.00;4953670;28;114089;-61
2022/03/19 08:03:26;;;;;;;8.82;4.28;;;;;;;11.61;52.05;104240.03;4963860;28;123873;-61
2022/03/19 08:05:55;;;;;;;11.55;4.60;;;;;;;11.66;51.89;104243.59;4957886;28;123309;-61
2022/03/19 08:08:22;;;;;;;10.80;4.22;;;;;;;11.76;51.85;104239.22;4959187;28;114253;-61
2022/03/19 08:10:50;;;;;;;14.23;4.15;;;;;;;11.84;51.65;104242.78;4955224;28;114078;-60
2022/03/19 08:13:18;;;;;;;10.00;4.38;;;;;;;11.93;51.49;104241.97;4957273;28;124252;-61
2022/03/19 08:15:45;;;;;;;9.65;4.35;;;;;;;12.01;51.57;104240.22;4957347;28;123666;-61
2022/03/19 08:18:13;;;;;;;10.75;4.13;;;;;;;12.10;50.94;104234.94;4963237;28;114409;-61
2022/03/19 08:20:41;;;;;;;10.88;4.00;;;;;;;12.13;50.89;104229.66;4963867;28;114121;-61
2022/03/19 08:23:09;;;;;;;9.63;3.97;;;;;;;12.19;50.85;104229.66;4959772;28;124028;-61
2022/03/19 08:25:37;;;;;;;8.23;4.38;;;;;;;12.24;50.79;104238.53;4963264;28;124089;-61
2022/03/19 08:28:04;;;;;;;11.02;3.92;;;;;;;12.31;50.73;104243.84;4953180;28;115307;-62
2022/03/19 08:30:32;;;;;;;7.50;4.15;;;;;;;12.37;50.65;104238.56;4959637;28;114915;-62
2022/03/19 08:32:59;;;;;;;8.63;3.72;;;;;;;12.44;50.28;104245.66;4955736;28;125072;-62
2022/03/19 08:35:27;;;;;;;10.80;4.13;;;;;;;12.50;50.30;104235.03;4953475;28;123757;-61
2022/03/19 08:40:15;;;;;;;8.07;4.15;;;;;;;12.61;50.41;104238.59;4962940;28;116582;-61
2022/03/19 08:40:42;;;;;;;12.13;3.83;;;;;;;12.70;50.16;104239.50;4951512;28;114152;-62
2022/03/19 08:43:09;;;;;;;14.27;4.55;;;;;;;12.78;50.15;104235.94;4953942;28;124817;-62
2022/03/19 08:45:36;;;;;;;7.97;3.85;;;;;;;12.88;49.93;104242.13;4955018;28;124403;-62
2022/03/19 08:48:03;;;;;;;6.95;3.42;;;;;;;12.94;49.68;104231.53;4957173;28;112932;-61
2022/03/19 08:50:31;;;;;;;10.82;3.85;;;;;;;12.99;49.58;104235.03;4955398;28;113751;-61
2022/03/19 08:52:58;;;;;;;7.03;3.65;;;;;;;13.04;49.53;104227.94;4951408;28;124374;-62
2022/03/19 08:55:25;;;;;;;11.55;3.72;;;;;;;13.11;49.12;104222.59;4954091;28;124670;-62
2022/03/19 08:57:52;;;;;;;13.13;3.65;;;;;;;13.15;49.03;104224.41;4951753;28;114823;-61
2022/03/19 09:00:19;;;;;;;9.18;3.88;;;;;;;13.23;49.10;104219.94;4952418;28;114512;-62
2022/03/19 09:02:48;;;;;;;9.77;3.67;;;;;;;13.28;48.73;104223.50;4951847;28;125276;-62
2022/03/19 09:05:16;;;;;;;9.75;3.75;;;;;;;13.37;48.87;104215.53;4949658;28;123821;-62
2022/03/19 09:07:44;;;;;;;8.32;3.70;;;;;;;13.42;48.92;104212.81;4951695;28;114892;-62
2022/03/19 09:10:11;;;;;;;7.65;3.85;;;;;;;13.49;48.64;104214.59;4951895;28;114090;-61
2022/03/19 09:12:39;;;;;;;9.07;3.45;;;;;;;13.57;48.37;104211.91;4950341;28;124050;-61
2022/03/19 09:15:09;;;;;;;11.10;3.47;;;;;;;13.62;48.09;104210.13;4950945;28;124546;-61
2022/03/19 09:17:38;;;;;;;11.13;3.85;;;;;;;13.67;48.27;104213.63;4950658;28;115712;-61
2022/03/19 09:20:06;;;;;;;8.63;3.65;;;;;;;13.73;47.71;104197.63;4935679;28;114023;-61
2022/03/19 09:22:35;;;;;;;10.68;3.72;;;;;;;13.75;47.49;104211.84;4951052;28;124515;-62
2022/03/19 09:25:03;;;;;;;7.80;3.17;;;;;;;13.79;47.08;104207.38;4951164;28;124084;-62
2022/03/19 09:27:30;;;;;;;6.95;3.47;;;;;;;13.81;47.09;104206.47;4950987;28;114371;-61
2022/03/19 09:29:58;;;;;;;9.30;3.83;;;;;;;13.84;46.82;104194.91;4951975;28;113016;-62
2022/03/19 09:32:25;;;;;;;8.48;3.33;;;;;;;13.89;46.44;104208.22;4953523;28;123978;-62
2022/03/19 09:34:53;;;;;;;12.02;3.80;;;;;;;13.91;46.42;104206.44;4970446;28;123576;-62
2022/03/19 09:37:20;;;;;;;8.30;3.45;;;;;;;13.94;46.25;104201.09;4962576;28;113632;-62
2022/03/19 09:39:49;;;;;;;9.63;3.20;;;;;;;14.00;46.60;104191.25;4954346;28;113377;-62
2022/03/19 09:42:16;;;;;;;10.27;3.05;;;;;;;14.06;45.94;104200.13;4948692;28;125169;-61
2022/03/19 09:44:44;;;;;;;9.55;3.65;;;;;;;14.12;46.17;104197.41;4950151;28;124868;-62
2022/03/19 09:47:12;;;;;;;9.82;3.17;;;;;;;14.19;46.17;104192.03;4950532;28;114359;-62
2022/03/19 09:49:40;;;;;;;10.10;3.67;;;;;;;14.30;46.03;104185.75;4950816;28;114460;-63
2022/03/19 09:52:11;;;;;;;6.35;2.80;;;;;;;14.40;45.79;104190.13;4950858;28;124762;-60
2022/03/19 09:54:39;;;;;;;9.30;3.25;;;;;;;14.52;45.59;104189.13;4951739;28;123695;-60
2022/03/19 09:57:07;;;;;;;10.20;3.50;;;;;;;14.57;44.99;104177.56;4967781;28;113575;-63
2022/03/19 09:59:36;;;;;;;7.25;3.42;;;;;;;14.60;44.61;104174.88;4953211;28;114359;-62
2022/03/19 10:02:12;;;;;;;7.43;3.25;;;;;;;14.64;44.87;104161.53;4949397;28;124149;-60
2022/03/19 10:04:42;;;;;;;7.35;2.88;;;;;;;14.73;44.78;104156.06;4949775;28;122976;-60
2022/03/19 10:09:56;;;;;;;8.93;2.97;;;;;;;14.91;43.83;104155.91;4957219;28;115144;-60
2022/03/19 10:12:27;;;;;;;5.85;2.42;;;;;;;14.95;43.34;104148.75;4957609;28;124089;-61
2022/03/19 10:14:57;;;;;;;4.72;2.40;;;;;;;15.01;43.36;104139.78;4957588;28;124216;-61
2022/03/19 10:17:30;;;;;;;5.60;2.33;;;;;;;15.10;43.07;104135.22;4954428;28;114497;-61
2022/03/19 10:20:03;;;;;;;5.85;2.33;;;;;;;15.21;42.68;104132.44;4956402;28;114192;-61
2022/03/19 10:22:31;;;;;;;7.82;2.50;;;;;;;15.29;42.75;104130.56;4956859;28;123911;-60
2022/03/19 10:25:01;;;;;;;5.65;2.10;;;;;;;15.41;42.08;104125.97;4957786;28;123802;-61
2022/03/19 10:27:37;;;;;;;5.82;2.25;;;;;;;15.46;41.85;104132.16;4962388;28;112270;-61
2022/03/19 10:30:11;;;;;;;6.97;2.30;;;;;;;15.52;40.95;104126.72;4952082;28;113817;-61
2022/03/19 10:32:40;;;;;;;5.75;2.38;;;;;;;15.56;41.30;104113.31;4951221;28;124378;-61
2022/03/19 10:35:34;;;;;;;4.38;2.10;;;;;;;15.60;40.48;104114.16;4949445;28;123843;-61
2022/03/19 10:38:16;;;;;;;5.28;2.17;;;;;;;15.64;40.12;104105.19;4958037;28;114565;-61
2022/03/19 10:40:48;;;;;;;4.22;1.95;;;;;;;15.71;39.32;104112.22;4954684;28;113872;-61
2022/03/19 10:43:22;;;;;;;6.13;2.10;;;;;;;15.74;38.73;104093.47;4952913;28;122840;-62
2022/03/19 10:45:52;;;;;;;5.95;2.20;;;;;;;15.80;38.64;104105.00;4961471;28;124018;-61
2022/03/19 10:48:26;;;;;;;6.65;1.98;;;;;;;15.85;38.17;104097.78;4967044;28;114216;-62
2022/03/19 10:50:54;;;;;;;4.80;1.67;;;;;;;15.86;36.90;104094.19;4969503;28;113905;-62
2022/03/19 10:53:23;;;;;;;4.50;1.70;;;;;;;15.86;36.78;104086.19;4970853;28;123813;-62
2022/03/19 10:55:51;;;;;;;4.45;1.60;;;;;;;15.86;35.62;104091.53;4960422;28;123728;-62
2022/03/19 10:58:20;;;;;;;3.75;1.45;;;;;;;15.86;36.15;104083.50;4972347;28;97071;-62
2022/03/19 11:01:07;;;;;;;3.23;1.33;;;;;;;15.89;36.61;104072.78;4970076;28;114958;-62
2022/03/19 11:03:39;;;;;;;3.15;1.30;;;;;;;15.95;35.89;104067.31;4967026;28;124115;-62
2022/03/19 11:06:08;;;;;;;3.47;1.58;;;;;;;16.00;35.39;104065.47;4968722;28;123983;-61
2022/03/19 11:08:39;;;;;;;4.60;1.58;;;;;;;16.02;34.84;104069.00;4968077;28;114159;-61
2022/03/19 11:11:10;;;;;;;3.53;1.60;;;;;;;16.03;34.08;104062.75;4968387;28;113626;-61
2022/03/19 11:13:43;;;;;;;3.70;1.52;;;;;;;16.02;34.24;104052.97;4970571;28;123903;-62
2022/03/19 11:16:11;;;;;;;4.20;1.45;;;;;;;16.05;33.89;104050.25;4971557;28;124743;-62
2022/03/19 11:18:42;;;;;;;4.82;1.67;;;;;;;16.04;32.96;104072.53;4967397;28;114558;-62
2022/03/19 11:21:09;;;;;;;4.60;1.40;;;;;;;16.03;33.18;104044.03;4968363;28;114299;-61
2022/03/19 11:23:48;;;;;;;4.63;1.58;;;;;;;16.05;33.43;104030.63;4969843;28;123979;-60
2022/03/19 11:26:21;;;;;;;3.17;1.25;;;;;;;16.11;33.29;104042.09;4966650;28;123561;-60
2022/03/19 11:28:53;;;;;;;4.82;1.20;;;;;;;16.19;32.91;104033.06;4952687;28;114111;-61
2022/03/19 11:31:30;;;;;;;2.95;1.20;;;;;;;16.25;32.56;104027.59;4948612;28;113756;-60
2022/03/19 11:34:04;;;;;;;2.35;1.00;;;;;;;16.29;31.81;104023.97;4953904;28;123957;-61
2022/03/19 11:37:02;;;;;;;1.73;1.13;;;;;;;16.32;31.68;104015.91;4969395;28;123803;-61